Briefing drone pour Unieux

Rechercher une autre localisation

Conditions de vol :


Nous sommes le : Lundi 04 juillet 2022
Il est 05:24 UTC (07:24 LT)

Lever de soleil : 03:34 UTC (05:34 LT)
Coucher de soleil : 20:00 UTC (22:00 LT)

Météo

L'essentiel des conditions de vol

VIGILANCE MÉTÉO FRANCE - Loire (42)
Vigilance Jaune : Orages
CARTE TEMSI
CARTES DES FRONTS
METAR de LFMH
LFMH 040500Z AUTO 00000KT CAVOK 17/14 Q1020

Date d'émission: 04/07/2022
Heure d'émission: 05:00 UTC
Vent: Calme
Visibilité horizontale: > 10 km
Plafond : Plafond et visibilité OK (CAVOK)
Température: 17 °C
Point de rosée: 14 °C
Humidité: 83%
Pression (QNH): 1020 hPa
TAF de LFMH
LFMH 161901Z 1619/1712 CNL

Conditions prévues :

Heure d'émission : Bulletin éffectué le 16 à 19:00 UTC
Prévision : Valide du 16 a 19:00 UTC au 17 a 12:00 UTC
Nuages : à 0ft (0 m)
WEBCAM POUR UNIEUX

Réglementation

Voler en sécurité

CARTES AERONAUTIQUE 1/500.000
CARTES VAC (LFMH)
SUP AIP




Chargement des AIP...
NOTAM (UNIEUX + Terrain à proximité / FIR )




Chargement des NOTAMS...
CONTACT PREFECTURE 42


Avertissement : Les données mises à disposition sont indicatives. Oxygène Drone ne pourra être tenu responsable de dégâts causés aux biens et aux personnes.